createdAt,value
2018-07-26T00:04:36.344Z,50.55
2018-07-26T00:09:40.610Z,50.70
2018-07-26T00:14:44.166Z,51.09
2018-07-26T00:19:48.138Z,50.43
2018-07-26T00:24:52.424Z,51.18
2018-07-26T00:29:56.462Z,50.54
2018-07-26T00:35:02.275Z,50.95
2018-07-26T00:40:06.571Z,51.30
2018-07-26T00:45:10.493Z,50.60
2018-07-26T00:50:15.449Z,51.46
2018-07-26T00:55:19.753Z,51.84
2018-07-26T01:00:23.895Z,52.00
2018-07-26T01:05:28.120Z,51.77
2018-07-26T01:10:32.554Z,52.12
2018-07-26T01:15:36.665Z,52.16
2018-07-26T01:20:40.755Z,52.74
2018-07-26T01:25:44.578Z,53.06
2018-07-26T01:30:48.208Z,53.51
2018-07-26T01:35:52.478Z,52.24
2018-07-26T01:40:56.442Z,53.75
2018-07-26T01:46:00.327Z,53.37
2018-07-26T01:51:04.130Z,54.49
2018-07-26T01:56:09.129Z,53.58
2018-07-26T02:01:14.010Z,54.06
2018-07-26T02:06:18.035Z,54.31
2018-07-26T02:11:21.918Z,54.61
2018-07-26T02:16:26.269Z,53.31
2018-07-26T02:21:29.950Z,54.46
2018-07-26T02:26:34.105Z,54.77
2018-07-26T02:31:38.023Z,55.07
2018-07-26T02:36:42.073Z,55.61
2018-07-26T02:41:45.965Z,55.83
2018-07-26T02:46:49.850Z,56.53
2018-07-26T02:51:54.054Z,56.09
2018-07-26T02:56:58.057Z,55.55
2018-07-26T03:02:02.186Z,56.24
2018-07-26T03:07:06.165Z,56.78
2018-07-26T03:12:10.195Z,56.72
2018-07-26T03:17:15.343Z,56.80
2018-07-26T03:22:19.957Z,56.33
2018-07-26T03:27:23.825Z,57.34
2018-07-26T03:32:28.442Z,57.46
2018-07-26T03:37:32.111Z,57.18
2018-07-26T03:42:36.410Z,57.88
2018-07-26T03:47:41.356Z,57.38
2018-07-26T03:52:45.885Z,57.55
2018-07-26T03:57:50.225Z,56.85
2018-07-26T04:02:54.551Z,57.83
2018-07-26T04:07:59.373Z,58.44
2018-07-26T04:13:03.820Z,57.16
2018-07-26T04:18:08.052Z,58.37
2018-07-26T04:23:12.414Z,58.66
2018-07-26T04:28:16.782Z,58.13
2018-07-26T04:33:20.922Z,57.75
2018-07-26T04:38:25.042Z,57.36
2018-07-26T04:43:29.653Z,58.02
2018-07-26T04:48:34.080Z,59.33
2018-07-26T04:53:38.288Z,58.79
2018-07-26T05:15:08.043Z,58.23
2018-07-26T05:20:12.222Z,58.64
2018-07-26T05:25:16.561Z,58.63
2018-07-26T05:30:20.958Z,58.60
2018-07-26T05:35:25.310Z,58.28
2018-07-26T05:40:29.587Z,58.18
2018-07-26T05:45:34.026Z,57.92
2018-07-26T05:50:39.948Z,57.65
2018-07-26T05:55:44.358Z,57.94
2018-07-26T06:00:48.587Z,58.07
2018-07-26T06:05:53.131Z,57.45
2018-07-26T06:10:57.268Z,57.50
2018-07-26T06:16:01.504Z,57.45
2018-07-26T06:21:05.645Z,57.44
2018-07-26T06:26:09.716Z,57.03
2018-07-26T06:31:13.949Z,56.90
2018-07-26T06:36:18.723Z,56.70
2018-07-26T06:41:23.262Z,55.89
2018-07-26T06:46:27.614Z,56.33
2018-07-26T06:51:31.828Z,55.79
2018-07-26T06:56:36.014Z,55.09
2018-07-26T07:01:40.592Z,54.85
2018-07-26T07:06:44.884Z,54.33
2018-07-26T07:11:49.083Z,54.88
2018-07-26T07:16:54.509Z,53.50
2018-07-26T07:21:58.734Z,53.86
2018-07-26T07:27:03.106Z,53.55
2018-07-26T07:32:07.588Z,52.90
2018-07-26T07:37:11.938Z,52.59
2018-07-26T07:42:16.261Z,52.22
2018-07-26T07:47:20.713Z,51.68
2018-07-26T07:52:25.844Z,51.25
2018-07-26T07:57:30.267Z,51.75
2018-07-26T08:02:34.476Z,50.57
2018-07-26T08:07:38.698Z,51.23
2018-07-26T08:12:52.330Z,50.63
2018-07-26T08:17:56.825Z,50.83
2018-07-26T08:23:01.111Z,49.79
2018-07-26T08:28:07.630Z,49.89
2018-07-26T08:49:36.057Z,47.18
2018-07-26T08:54:40.503Z,46.56
2018-07-26T08:59:44.999Z,47.16
2018-07-26T09:04:49.420Z,46.15
2018-07-26T09:09:54.841Z,44.67
2018-07-26T09:35:19.162Z,41.80
2018-07-26T09:40:23.511Z,41.19
2018-07-26T09:45:27.867Z,41.30
2018-07-26T09:50:32.288Z,40.64
2018-07-26T09:55:36.630Z,40.33
2018-07-26T10:00:45.775Z,38.36
2018-07-26T10:05:50.111Z,36.84
2018-07-26T10:10:55.302Z,36.42
2018-07-26T10:15:59.330Z,35.24
2018-07-26T10:21:03.630Z,35.39
2018-07-26T10:26:07.685Z,35.01
2018-07-26T10:31:12.250Z,34.96
2018-07-26T10:36:16.246Z,35.18
2018-07-26T10:41:20.231Z,34.66
2018-07-26T10:46:24.754Z,33.52
2018-07-26T10:51:29.828Z,34.31
2018-07-26T10:56:34.099Z,33.75
2018-07-26T11:01:38.050Z,33.29
2018-07-26T11:06:42.096Z,32.28
2018-07-26T11:11:46.432Z,31.90
2018-07-26T11:16:50.359Z,31.63
2018-07-26T11:21:54.532Z,31.93
2018-07-26T11:26:58.643Z,31.71
2018-07-26T11:32:02.755Z,31.32
2018-07-26T11:37:07.679Z,31.80
2018-07-26T11:42:12.679Z,31.95
2018-07-26T11:47:16.820Z,31.70
2018-07-26T11:52:21.261Z,31.17
2018-07-26T11:57:25.844Z,31.74
2018-07-26T12:02:30.474Z,31.30
2018-07-26T12:07:34.987Z,30.41
2018-07-26T12:12:39.257Z,31.22
2018-07-26T12:17:43.503Z,30.17
2018-07-26T12:22:47.698Z,29.78
2018-07-26T12:27:51.969Z,28.26
2018-07-26T12:32:57.073Z,28.43
2018-07-26T12:38:01.178Z,27.97
2018-07-26T12:43:05.447Z,26.46
2018-07-26T12:48:09.856Z,27.60
2018-07-26T12:53:14.047Z,26.93
2018-07-26T12:58:18.079Z,26.25
2018-07-26T13:03:21.891Z,25.78
2018-07-26T13:08:26.118Z,26.30
2018-07-26T13:13:30.320Z,27.10
2018-07-26T13:18:34.619Z,26.98
2018-07-26T13:23:38.961Z,26.80
2018-07-26T13:28:43.158Z,26.92
2018-07-26T13:33:51.256Z,26.54
2018-07-26T13:38:55.807Z,26.55
2018-07-26T13:44:00.417Z,26.81
2018-07-26T13:49:04.584Z,25.93
2018-07-26T13:54:08.386Z,25.59
2018-07-26T13:59:12.325Z,25.88
2018-07-26T14:04:16.156Z,25.66
2018-07-26T14:09:20.532Z,25.94
2018-07-26T14:14:24.831Z,25.84
2018-07-26T14:19:28.995Z,25.83
2018-07-26T14:24:32.979Z,26.16
2018-07-26T14:29:37.175Z,25.36
2018-07-26T14:34:41.569Z,25.74
2018-07-26T14:39:46.798Z,26.02
2018-07-26T14:44:51.477Z,26.87
2018-07-26T14:49:55.819Z,27.17
2018-07-26T14:55:05.037Z,27.12
2018-07-26T15:00:09.266Z,27.33
2018-07-26T15:05:13.466Z,27.00
2018-07-26T15:10:17.382Z,27.65
2018-07-26T15:15:23.264Z,26.72
2018-07-26T15:20:27.420Z,26.55
2018-07-26T15:25:32.652Z,25.87
2018-07-26T15:30:36.418Z,26.54
2018-07-26T15:40:50.916Z,25.73
2018-07-26T15:45:55.161Z,25.30
2018-07-26T15:51:00.397Z,25.22
2018-07-26T15:56:04.067Z,25.62
2018-07-26T16:01:08.263Z,25.46
2018-07-26T16:06:13.041Z,23.95
2018-07-26T16:11:16.958Z,25.49
2018-07-26T16:16:20.962Z,26.94
2018-07-26T16:37:47.898Z,21.38
2018-07-26T16:42:52.055Z,23.06
2018-07-26T16:47:56.266Z,24.15
2018-07-26T16:53:00.419Z,25.18
2018-07-26T16:58:05.682Z,24.73
2018-07-26T17:03:09.846Z,25.50
2018-07-26T17:08:14.938Z,25.74
2018-07-26T17:13:19.130Z,25.09
2018-07-26T17:18:23.542Z,25.37
2018-07-26T17:23:28.193Z,25.43
2018-07-26T17:28:32.731Z,24.82
2018-07-26T17:33:37.195Z,25.16
2018-07-26T17:38:42.676Z,25.57
2018-07-26T17:43:47.957Z,24.84
2018-07-26T17:48:52.575Z,22.79
2018-07-26T17:53:56.861Z,24.16
2018-07-26T17:59:00.841Z,24.99
2018-07-26T18:04:05.599Z,25.42
2018-07-26T18:09:10.349Z,26.21
2018-07-26T18:14:14.657Z,26.88
2018-07-26T18:19:19.197Z,26.46
2018-07-26T18:24:24.002Z,27.27
2018-07-26T18:29:28.642Z,26.96
2018-07-26T18:34:33.560Z,27.82
2018-07-26T18:39:38.195Z,28.37
2018-07-26T18:44:43.389Z,28.49
2018-07-26T18:49:47.836Z,28.58
2018-07-26T18:54:52.224Z,29.61
2018-07-26T18:59:56.616Z,29.63
2018-07-26T19:28:33.276Z,31.66
2018-07-26T19:33:37.130Z,31.18
2018-07-26T19:38:41.301Z,32.79
2018-07-26T19:43:45.806Z,33.15
2018-07-26T19:48:50.220Z,33.66
2018-07-26T19:53:56.530Z,33.97
2018-07-26T19:59:01.170Z,33.70
2018-07-26T20:04:05.511Z,33.70
2018-07-26T20:09:10.409Z,34.86
2018-07-26T20:14:13.946Z,35.55
2018-07-26T20:19:17.763Z,35.85
2018-07-26T20:24:21.391Z,35.37
2018-07-26T20:29:25.601Z,36.37
2018-07-26T20:34:30.669Z,37.00
2018-07-26T20:39:34.843Z,37.11
2018-07-26T20:44:38.727Z,37.08
2018-07-26T20:49:43.398Z,37.32
2018-07-26T20:54:47.550Z,37.67
2018-07-26T20:59:51.777Z,38.74
2018-07-26T21:04:56.102Z,38.69
2018-07-26T21:15:11.349Z,38.88
2018-07-26T21:20:15.733Z,38.91
2018-07-26T21:25:19.675Z,39.23
2018-07-26T21:30:24.073Z,39.76
2018-07-26T21:35:28.574Z,40.03
2018-07-26T21:40:32.494Z,40.35
2018-07-26T21:45:37.206Z,39.93
2018-07-26T21:50:41.894Z,39.83
2018-07-26T21:55:45.648Z,39.74
2018-07-26T22:00:54.457Z,40.71
2018-07-26T22:05:59.364Z,41.39
2018-07-26T22:11:03.333Z,41.46
2018-07-26T22:16:07.405Z,41.39
2018-07-26T22:21:11.176Z,42.45
2018-07-26T22:26:15.314Z,42.34
2018-07-26T22:31:19.271Z,42.50
2018-07-26T22:36:23.813Z,42.46
2018-07-26T22:41:28.334Z,42.44
2018-07-26T22:46:32.415Z,42.68
2018-07-26T22:51:36.342Z,43.61
2018-07-26T22:56:40.531Z,43.22
2018-07-26T23:01:44.662Z,43.60
2018-07-26T23:06:48.661Z,44.45
2018-07-26T23:11:52.623Z,45.02
2018-07-26T23:16:56.463Z,44.56
2018-07-26T23:22:00.427Z,44.56
2018-07-26T23:27:04.431Z,44.88
2018-07-26T23:32:08.174Z,44.71
2018-07-26T23:37:12.012Z,44.92
2018-07-26T23:42:16.062Z,45.22
2018-07-26T23:47:19.654Z,45.78
2018-07-26T23:52:23.698Z,46.83
2018-07-26T23:57:27.720Z,46.71
